Terminal Aerodrome Forecast
Issued by NWS Portland, OR

Home | Current Version | Previous Version | Text Only | Print | Product List | Glossary On
Versions: 1 2 3 4 5 6 7 8 9 10 11 12 13 14 15 16 17 18 19 20 21 22 23 24 25 26 27 28 29 30 31
000
FTUS46 KPQR 181144
TAFHIO
TAF
KHIO 181144Z 1812/1912 VRB03KT 3SM BR OVC014
     FM181700 17010KT 5SM -RA BR SCT012 OVC018
     FM182100 18015G22KT P6SM -SHRA SCT022 OVC040
     FM190100 18018G25KT P6SM SCT015 BKN025
     FM190700 18011KT 5SM -SHRA OVC025=

USA.gov is the U.S. government's official web portal to all federal, state and local government web resources and services.